Time;durP1;ratioP1;P1;durP2;ratioP2;P2;SDS_P1;SDS_P2;PMS_P1;PMS_P2;Temp;Humidity;BMP_temperature;BMP_pressure;BME280_temperature;BME280_humidity;BME280_pressure;Samples;Min_cycle;Max_cycle;Signal;HPM_P1;HPM_P2
2024/03/31 00:00:44;;;;;;;5.13;0.68;;;;;;;14.17;46.72;91128.75;2034649;70;20343;-67
2024/03/31 00:03:10;;;;;;;2.53;0.57;;;;;;;14.20;46.87;91154.97;2031046;70;20318;-73
2024/03/31 00:05:36;;;;;;;5.80;0.90;;;;;;;14.27;46.72;91102.06;2031234;70;20171;-70
2024/03/31 00:08:01;;;;;;;6.13;0.70;;;;;;;14.27;46.43;91178.47;2034649;70;20154;-70
2024/03/31 00:10:27;;;;;;;5.43;0.90;;;;;;;14.22;47.21;91235.00;2034457;70;20131;-72
2024/03/31 00:12:52;;;;;;;5.93;0.60;;;;;;;14.02;48.31;91222.44;2031175;70;20155;-80
2024/03/31 00:15:18;;;;;;;7.30;0.70;;;;;;;14.23;47.34;91219.44;2034765;70;20205;-78
2024/03/31 00:17:44;;;;;;;4.15;0.70;;;;;;;14.10;48.28;91183.75;2034952;70;20156;-79
2024/03/31 00:20:09;;;;;;;5.82;0.60;;;;;;;14.16;48.51;91220.69;2035078;70;20208;-79
2024/03/31 00:22:35;;;;;;;8.45;0.80;;;;;;;13.96;49.48;91212.41;2035094;70;20514;-81
2024/03/31 00:25:01;;;;;;;5.07;0.73;;;;;;;13.79;49.57;91244.53;2031168;70;20286;-75
2024/03/31 00:27:26;;;;;;;6.88;1.13;;;;;;;14.10;49.20;91211.31;2035254;70;20609;-76
2024/03/31 00:29:52;;;;;;;7.38;0.70;;;;;;;13.99;49.47;91222.41;2032010;70;20239;-79
2024/03/31 00:32:17;;;;;;;7.20;0.70;;;;;;;13.92;49.28;91217.25;2032049;70;20698;-70
2024/03/31 00:34:43;;;;;;;6.18;0.90;;;;;;;13.96;49.02;91242.81;2031677;70;20160;-70
2024/03/31 00:37:08;;;;;;;6.80;0.80;;;;;;;14.10;49.36;91226.19;2035029;70;20147;-70
2024/03/31 00:39:34;;;;;;;3.22;0.55;;;;;;;13.82;49.90;91239.63;2035118;70;20179;-67
2024/03/31 00:42:00;;;;;;;3.92;0.65;;;;;;;13.93;49.12;91233.59;2031460;70;20144;-73
2024/03/31 00:44:25;;;;;;;7.00;0.73;;;;;;;13.86;49.75;91273.69;2031462;70;20175;-69
2024/03/31 00:46:52;;;;;;;5.85;0.75;;;;;;;13.91;49.43;91280.88;2035094;70;20232;-70
2024/03/31 00:49:18;;;;;;;10.70;0.90;;;;;;;13.90;49.58;91280.16;2034952;70;20158;-70
2024/03/31 00:51:44;;;;;;;10.18;1.00;;;;;;;13.94;49.31;91294.41;2035221;70;20318;-71
2024/03/31 00:54:09;;;;;;;5.70;0.82;;;;;;;14.05;49.11;91300.34;2031331;70;20144;-70
2024/03/31 00:56:35;;;;;;;8.82;1.00;;;;;;;13.94;49.33;91336.84;2031353;70;20174;-79
2024/03/31 00:59:01;;;;;;;7.13;0.90;;;;;;;14.12;49.24;91335.91;2032023;70;20605;-79
2024/03/31 01:01:28;;;;;;;8.15;0.90;;;;;;;14.18;49.18;91353.03;2035022;70;20238;-70
2024/03/31 01:03:54;;;;;;;10.93;1.45;;;;;;;14.07;51.29;91371.13;2031670;70;20597;-72
2024/03/31 01:06:21;;;;;;;14.55;1.60;;;;;;;14.17;52.41;91363.63;2031751;70;20148;-70
2024/03/31 01:08:50;;;;;;;10.73;1.42;;;;;;;14.18;54.01;91356.56;2035336;70;20136;-71
2024/03/31 01:11:20;;;;;;;8.82;1.83;;;;;;;14.11;57.07;91340.84;2034981;70;20179;-69
2024/03/31 01:13:47;;;;;;;8.18;1.63;;;;;;;13.47;59.05;91363.13;2035354;70;20183;-76
2024/03/31 01:16:13;;;;;;;9.18;1.52;;;;;;;13.34;60.75;91364.88;2031371;70;20225;-81
2024/03/31 01:18:39;;;;;;;6.10;1.17;;;;;;;13.08;60.07;91361.97;2032087;70;20184;-81
2024/03/31 01:21:08;;;;;;;8.25;1.30;;;;;;;12.94;60.74;91370.00;2031820;70;20137;-74
2024/03/31 01:23:54;;;;;;;16.20;1.38;;;;;;;13.24;59.86;91347.63;2035353;70;20148;-80
2024/03/31 01:26:20;;;;;;;5.95;1.10;;;;;;;13.13;61.11;91340.19;2035341;70;20163;-76
2024/03/31 01:28:46;;;;;;;10.25;1.55;;;;;;;12.96;61.69;91367.94;2034999;70;20160;-80
2024/03/31 01:31:11;;;;;;;7.30;1.55;;;;;;;12.32;64.82;91355.31;2035143;70;20671;-80
2024/03/31 01:33:37;;;;;;;14.13;1.45;;;;;;;12.64;63.42;91344.34;2031261;70;20148;-70
2024/03/31 01:36:03;;;;;;;7.32;1.13;;;;;;;12.84;62.71;91373.25;2031364;70;20171;-70
2024/03/31 01:38:29;;;;;;;8.35;1.20;;;;;;;12.53;63.65;91356.72;2034972;70;20147;-70
2024/03/31 01:40:55;;;;;;;4.38;0.95;;;;;;;12.62;63.14;91364.78;2031390;70;20145;-74
2024/03/31 01:43:21;;;;;;;3.53;0.77;;;;;;;12.41;63.47;91346.47;2031321;70;20156;-72
2024/03/31 01:45:47;;;;;;;5.22;0.70;;;;;;;11.79;65.81;91337.34;2034913;70;20187;-71
2024/03/31 01:48:12;;;;;;;6.18;0.90;;;;;;;11.87;63.96;91343.28;2035133;70;20155;-72
2024/03/31 01:50:38;;;;;;;4.97;0.70;;;;;;;12.03;63.88;91323.34;2031105;70;20228;-80
2024/03/31 01:53:05;;;;;;;4.03;0.70;;;;;;;12.01;64.46;91317.66;2031482;70;20163;-74
2024/03/31 01:55:31;;;;;;;4.45;0.60;;;;;;;11.51;65.27;91286.34;2031568;70;20171;-79
2024/03/31 01:57:57;;;;;;;6.45;0.85;;;;;;;11.52;65.35;91284.25;2031606;70;20147;-77
2024/03/31 02:00:22;;;;;;;4.65;0.80;;;;;;;11.38;65.85;91299.28;2031212;70;20144;-68
2024/03/31 02:02:48;;;;;;;5.40;0.60;;;;;;;11.45;64.03;91298.13;2031380;70;20145;-71
2024/03/31 02:05:14;;;;;;;3.22;0.40;;;;;;;11.63;63.46;91278.28;2034767;70;20501;-70
2024/03/31 02:07:39;;;;;;;1.58;0.68;;;;;;;11.17;65.00;91261.22;2035119;70;20163;-70
2024/03/31 02:10:07;;;;;;;1.52;0.47;;;;;;;11.36;63.90;91265.41;2030879;70;20501;-69
2024/03/31 02:12:35;;;;;;;2.92;0.60;;;;;;;10.99;64.40;91235.22;2031609;70;20577;-76
2024/03/31 02:15:01;;;;;;;1.58;0.30;;;;;;;11.28;63.71;91259.50;2035273;70;20513;-71
2024/03/31 02:17:27;;;;;;;3.72;0.35;;;;;;;11.25;65.06;91246.69;2028714;70;20140;-78
2024/03/31 02:19:52;;;;;;;2.58;0.30;;;;;;;11.36;63.18;91247.75;2031206;70;20160;-72
2024/03/31 02:22:18;;;;;;;2.55;0.32;;;;;;;11.40;63.69;91231.00;2031003;70;20148;-80
2024/03/31 02:24:44;;;;;;;1.42;0.20;;;;;;;11.29;64.13;91251.75;2035207;70;20577;-80
2024/03/31 02:27:10;;;;;;;5.20;0.90;;;;;;;11.11;63.63;91232.84;2031637;70;20188;-70
2024/03/31 02:29:36;;;;;;;3.33;0.30;;;;;;;11.09;63.05;91218.69;2030548;70;20184;-69
2024/03/31 02:32:02;;;;;;;0.73;0.40;;;;;;;11.38;62.92;91211.94;2031310;70;20200;-70
2024/03/31 02:34:27;;;;;;;2.65;0.40;;;;;;;11.49;62.33;91224.25;2030773;70;20141;-72
2024/03/31 02:36:54;;;;;;;0.93;0.30;;;;;;;11.50;63.02;91214.47;2031018;70;20647;-69
2024/03/31 02:39:19;;;;;;;1.38;0.30;;;;;;;11.36;62.75;91216.78;2031268;70;20156;-69
2024/03/31 02:41:45;;;;;;;1.73;0.40;;;;;;;11.36;63.41;91213.94;2030541;70;20171;-70
2024/03/31 02:44:10;;;;;;;2.05;0.40;;;;;;;11.40;63.47;91202.81;2028205;70;20144;-75
2024/03/31 02:46:36;;;;;;;3.03;0.50;;;;;;;10.97;67.27;91226.00;2030699;70;20195;-72
2024/03/31 02:49:02;;;;;;;3.17;0.65;;;;;;;11.17;66.53;91216.16;2031302;70;20598;-76
2024/03/31 02:51:27;;;;;;;4.85;0.60;;;;;;;10.55;69.18;91225.88;2030620;70;20148;-71
2024/03/31 02:53:53;;;;;;;4.60;1.27;;;;;;;10.97;67.32;91223.19;2030476;70;20187;-75
2024/03/31 02:56:19;;;;;;;2.53;0.70;;;;;;;10.82;67.46;91228.28;2030684;70;20219;-78
2024/03/31 02:58:46;;;;;;;7.88;0.70;;;;;;;10.83;68.22;91207.22;2030817;70;20540;-75
2024/03/31 03:01:12;;;;;;;5.25;0.50;;;;;;;10.91;67.75;91230.03;2030498;70;20151;-78
2024/03/31 03:03:38;;;;;;;2.38;0.40;;;;;;;10.81;68.25;91220.47;2031393;70;20554;-77
2024/03/31 03:06:04;;;;;;;2.33;0.30;;;;;;;10.75;68.23;91225.91;2030900;70;20635;-70
2024/03/31 03:08:30;;;;;;;2.92;0.30;;;;;;;10.69;68.21;91241.19;2030578;70;20152;-71
2024/03/31 03:10:57;;;;;;;3.30;0.55;;;;;;;10.54;68.66;91236.41;2030719;70;20140;-70
2024/03/31 03:13:24;;;;;;;1.08;0.20;;;;;;;10.26;69.89;91238.13;2030694;70;20171;-73
2024/03/31 03:15:50;;;;;;;1.25;0.40;;;;;;;10.41;69.46;91234.50;2030364;70;20140;-73
2024/03/31 03:18:21;;;;;;;0.47;0.20;;;;;;;10.23;69.18;91245.75;2031383;70;20175;-76
2024/03/31 03:20:50;;;;;;;3.38;0.38;;;;;;;10.27;68.89;91226.25;2030747;70;20132;-78
2024/03/31 03:23:15;;;;;;;2.03;0.30;;;;;;;10.39;68.34;91204.19;2030689;70;20187;-75
2024/03/31 03:25:41;;;;;;;2.78;0.40;;;;;;;9.98;69.82;91213.16;2031031;70;20140;-74
2024/03/31 03:28:06;;;;;;;2.20;0.85;;;;;;;10.24;69.37;91213.47;2031144;70;20164;-77
2024/03/31 03:30:36;;;;;;;2.58;0.38;;;;;;;10.26;69.77;91201.56;2030663;70;20538;-78
2024/03/31 03:33:02;;;;;;;1.92;0.50;;;;;;;10.39;67.48;91206.28;2030681;70;20171;-71
2024/03/31 03:35:30;;;;;;;3.13;0.70;;;;;;;10.32;68.79;91204.63;2030482;70;20273;-70
2024/03/31 03:37:55;;;;;;;1.92;0.40;;;;;;;10.25;68.35;91200.13;2030627;70;20175;-71
2024/03/31 03:40:21;;;;;;;2.53;0.80;;;;;;;10.13;68.98;91189.13;2030471;70;20156;-70
2024/03/31 03:42:47;;;;;;;3.10;0.75;;;;;;;10.04;68.87;91181.75;2030091;70;20167;-70
2024/03/31 03:45:12;;;;;;;4.32;0.80;;;;;;;9.94;71.10;91193.31;2030294;70;20516;-70
2024/03/31 03:47:38;;;;;;;2.67;0.77;;;;;;;9.97;70.50;91186.41;2030314;70;20156;-71
2024/03/31 03:50:05;;;;;;;3.63;0.60;;;;;;;9.80;70.06;91190.69;2031005;70;20195;-73
2024/03/31 03:52:30;;;;;;;2.33;0.70;;;;;;;9.30;74.18;91203.41;2030478;70;20162;-77
2024/03/31 03:54:56;;;;;;;28.33;14.82;;;;;;;9.67;72.60;91186.69;2031001;70;20153;-73
2024/03/31 03:57:21;;;;;;;27.20;15.00;;;;;;;9.97;70.71;91197.66;2030182;70;20227;-76
2024/03/31 03:59:47;;;;;;;24.42;13.15;;;;;;;9.98;69.67;91182.22;2030945;70;20152;-74
2024/03/31 04:02:12;;;;;;;9.35;3.92;;;;;;;9.34;72.93;91195.16;2030622;70;20559;-78
2024/03/31 04:04:38;;;;;;;7.00;3.00;;;;;;;9.42;73.79;91187.06;2030470;70;20148;-74
2024/03/31 04:07:04;;;;;;;9.32;4.07;;;;;;;9.73;71.82;91185.47;2030410;70;20168;-73
2024/03/31 04:09:29;;;;;;;7.00;2.63;;;;;;;9.64;72.06;91182.34;2030818;70;20152;-75
2024/03/31 04:11:55;;;;;;;8.43;2.17;;;;;;;9.75;71.95;91191.16;2030345;70;20148;-75
2024/03/31 04:14:20;;;;;;;4.57;2.33;;;;;;;9.77;71.58;91197.59;2030324;70;20605;-70
2024/03/31 04:16:46;;;;;;;9.52;2.50;;;;;;;9.88;71.07;91193.81;2030517;70;20168;-71
2024/03/31 04:19:12;;;;;;;2.60;1.30;;;;;;;9.43;73.14;91197.66;2030381;70;20165;-70
2024/03/31 04:21:39;;;;;;;4.72;1.38;;;;;;;9.61;72.31;91200.47;2030470;70;20188;-70
2024/03/31 04:24:04;;;;;;;5.50;2.10;;;;;;;9.14;73.14;91190.16;2030398;70;20151;-71
2024/03/31 04:26:30;;;;;;;4.35;2.38;;;;;;;9.54;72.00;91184.03;2027848;70;20149;-70
2024/03/31 04:28:56;;;;;;;2.97;1.30;;;;;;;9.38;73.32;91178.47;2031529;70;20171;-72
2024/03/31 04:31:21;;;;;;;4.65;1.83;;;;;;;9.12;73.54;91172.50;2031398;70;20509;-70
2024/03/31 04:33:47;;;;;;;3.90;1.65;;;;;;;9.40;73.58;91179.28;2031562;70;20156;-72
2024/03/31 04:36:15;;;;;;;4.00;2.20;;;;;;;9.51;72.53;91190.91;2028882;70;20173;-71
2024/03/31 04:38:41;;;;;;;6.68;2.20;;;;;;;9.26;73.08;91203.25;2031365;70;20132;-69
2024/03/31 04:41:08;;;;;;;6.72;2.15;;;;;;;9.30;73.40;91190.09;2031138;70;20558;-69
2024/03/31 04:43:34;;;;;;;2.88;1.38;;;;;;;9.48;72.11;91201.34;2030587;70;20190;-69
2024/03/31 04:46:04;;;;;;;5.32;2.10;;;;;;;9.43;72.08;91194.84;2030761;70;20143;-70
2024/03/31 04:48:31;;;;;;;3.55;1.80;;;;;;;9.43;72.23;91177.97;2031111;70;20187;-69
2024/03/31 04:50:57;;;;;;;4.28;1.90;;;;;;;9.24;73.29;91183.50;2028589;70;20164;-71
2024/03/31 04:53:23;;;;;;;4.20;1.85;;;;;;;9.41;72.32;91180.00;2028507;70;20509;-69
2024/03/31 04:55:48;;;;;;;3.47;1.27;;;;;;;9.31;72.88;91168.38;2034744;70;20196;-71
2024/03/31 04:58:14;;;;;;;1.63;1.10;;;;;;;9.42;72.01;91178.63;2031233;70;20246;-69
2024/03/31 05:00:39;;;;;;;2.78;1.48;;;;;;;9.28;73.03;91172.44;2030759;70;20148;-69
2024/03/31 05:03:05;;;;;;;6.55;1.40;;;;;;;9.20;73.46;91186.13;2030895;70;20223;-71
2024/03/31 05:05:35;;;;;;;5.32;3.00;;;;;;;8.73;75.84;91201.72;2031092;70;20163;-76
2024/03/31 05:08:02;;;;;;;9.80;5.05;;;;;;;8.94;75.02;91185.78;2034707;70;20239;-69
2024/03/31 05:10:28;;;;;;;11.05;6.35;;;;;;;9.15;74.01;91193.66;2031011;70;20156;-74
2024/03/31 05:12:56;;;;;;;7.20;3.50;;;;;;;9.27;72.30;91193.47;2031202;70;20669;-72
2024/03/31 05:15:22;;;;;;;9.90;4.40;;;;;;;9.24;72.50;91187.03;2031651;70;20188;-69
2024/03/31 05:17:48;;;;;;;5.78;3.08;;;;;;;9.27;73.16;91202.63;2034848;70;20235;-70
2024/03/31 05:20:16;;;;;;;4.55;2.03;;;;;;;9.38;72.37;91190.41;2031732;70;20206;-68
2024/03/31 05:22:42;;;;;;;7.15;3.28;;;;;;;8.94;74.40;91206.16;2035171;70;20538;-72
2024/03/31 05:25:07;;;;;;;9.35;5.15;;;;;;;8.85;75.77;91207.88;2031535;70;20159;-73
2024/03/31 05:27:33;;;;;;;3.80;2.35;;;;;;;9.13;73.57;91182.38;2031577;70;20156;-71
2024/03/31 05:29:59;;;;;;;4.00;2.10;;;;;;;9.36;72.21;91203.66;2028539;70;20186;-74
2024/03/31 05:32:25;;;;;;;4.50;2.20;;;;;;;9.25;73.37;91210.22;2028252;70;20152;-70
2024/03/31 05:35:00;;;;;;;5.45;2.30;;;;;;;9.30;73.56;91201.34;2028210;70;20331;-73
2024/03/31 05:37:26;;;;;;;6.15;2.70;;;;;;;9.32;73.32;91215.44;2031716;70;20164;-76
2024/03/31 05:39:51;;;;;;;6.20;2.70;;;;;;;8.78;75.96;91223.00;2028329;70;20152;-72
2024/03/31 05:42:17;;;;;;;6.07;2.80;;;;;;;9.31;73.69;91207.69;2028360;70;20267;-77
2024/03/31 05:44:43;;;;;;;6.32;1.98;;;;;;;9.37;73.15;91216.34;2028418;70;20156;-76
2024/03/31 05:47:09;;;;;;;4.63;2.05;;;;;;;8.76;75.57;91225.72;2031996;70;20157;-70
2024/03/31 05:49:35;;;;;;;5.28;2.30;;;;;;;9.11;74.85;91216.69;2028359;70;20236;-69
2024/03/31 05:52:01;;;;;;;3.10;2.25;;;;;;;9.21;73.91;91232.50;2031948;70;20152;-70
2024/03/31 05:54:27;;;;;;;3.47;2.55;;;;;;;9.41;73.21;91239.69;2031881;70;20208;-73
2024/03/31 05:56:55;;;;;;;3.78;2.15;;;;;;;9.54;72.62;91235.31;2030892;70;20180;-72
2024/03/31 05:59:21;;;;;;;5.50;2.00;;;;;;;8.78;76.16;91234.22;2030999;70;20295;-75
2024/03/31 06:01:47;;;;;;;5.85;1.83;;;;;;;9.48;72.39;91231.50;2025679;70;20180;-71
2024/03/31 06:04:13;;;;;;;3.17;2.08;;;;;;;9.62;72.89;91235.66;2032218;70;20152;-74
2024/03/31 06:06:39;;;;;;;4.00;2.10;;;;;;;9.39;74.30;91242.44;2032642;70;20160;-72
2024/03/31 06:09:04;;;;;;;4.60;2.15;;;;;;;9.69;72.25;91219.75;2035074;70;20167;-77
2024/03/31 06:11:30;;;;;;;4.82;2.40;;;;;;;9.79;73.56;91213.81;2031698;70;20147;-77
2024/03/31 06:13:58;;;;;;;6.57;4.00;;;;;;;9.30;75.04;91220.25;2035530;70;20159;-75
2024/03/31 06:16:25;;;;;;;6.78;3.58;;;;;;;9.73;73.29;91205.16;2031721;70;20164;-69
2024/03/31 06:18:50;;;;;;;7.60;3.65;;;;;;;9.85;73.42;91209.16;2032115;70;20144;-73
2024/03/31 06:21:18;;;;;;;5.43;2.65;;;;;;;9.14;75.70;91206.28;2031631;70;20471;-71
2024/03/31 06:23:44;;;;;;;7.50;3.80;;;;;;;9.14;76.98;91207.00;2028747;70;20605;-69
2024/03/31 06:26:10;;;;;;;8.65;4.30;;;;;;;9.63;74.36;91211.81;2035287;70;20163;-71
2024/03/31 06:28:36;;;;;;;7.47;3.00;;;;;;;9.83;73.40;91199.91;2031717;70;20164;-71
2024/03/31 06:31:06;;;;;;;3.20;1.83;;;;;;;10.03;72.57;91199.97;2031751;70;20156;-69
2024/03/31 06:33:32;;;;;;;5.45;3.28;;;;;;;9.61;74.03;91202.56;2028863;70;20166;-76
2024/03/31 06:36:03;;;;;;;8.93;3.40;;;;;;;9.97;73.14;91199.75;2031692;70;20148;-72
2024/03/31 06:38:29;;;;;;;8.73;5.28;;;;;;;9.91;73.77;91189.00;2031841;70;20172;-70
2024/03/31 06:40:55;;;;;;;8.32;5.57;;;;;;;9.53;75.12;91188.19;2030989;70;20256;-71
2024/03/31 06:43:21;;;;;;;9.95;4.65;;;;;;;10.04;73.33;91184.56;2031316;70;20607;-70
2024/03/31 06:45:49;;;;;;;8.93;5.03;;;;;;;10.28;72.94;91173.53;2031414;70;20335;-71
2024/03/31 06:48:15;;;;;;;8.15;4.28;;;;;;;10.38;71.75;91169.00;2031452;70;20188;-73
2024/03/31 06:50:41;;;;;;;8.85;4.78;;;;;;;10.12;72.69;91174.34;2034977;70;20125;-74
2024/03/31 06:53:07;;;;;;;8.15;4.53;;;;;;;10.50;71.86;91157.50;2031436;70;20156;-72
2024/03/31 06:55:32;;;;;;;6.88;4.05;;;;;;;10.34;73.15;91163.22;2031544;70;20152;-77
2024/03/31 06:57:58;;;;;;;4.78;3.47;;;;;;;10.63;72.06;91169.91;2031245;70;20251;-72
2024/03/31 07:00:24;;;;;;;5.55;3.50;;;;;;;10.28;74.16;91151.75;2035186;70;20159;-79
2024/03/31 07:02:50;;;;;;;5.88;3.75;;;;;;;10.76;72.17;91140.09;2034874;70;20637;-75
2024/03/31 07:05:16;;;;;;;5.50;3.63;;;;;;;11.33;72.31;91153.31;2031322;70;20160;-73
2024/03/31 07:07:42;;;;;;;4.80;3.15;;;;;;;11.14;71.67;91152.69;2031394;70;20145;-76
2024/03/31 07:10:07;;;;;;;6.53;3.70;;;;;;;10.90;72.13;91132.88;2031488;70;20159;-75
2024/03/31 07:12:34;;;;;;;10.32;4.50;;;;;;;11.40;71.01;91130.28;2031440;70;20601;-73
2024/03/31 07:15:01;;;;;;;7.15;3.90;;;;;;;11.73;71.09;91133.41;2034873;70;20236;-76
2024/03/31 07:17:26;;;;;;;7.00;3.90;;;;;;;11.62;71.11;91138.75;2026990;70;20259;-73
2024/03/31 07:19:52;;;;;;;11.15;5.88;;;;;;;11.62;71.17;91118.31;2025574;70;20230;-71
2024/03/31 07:22:19;;;;;;;10.32;5.57;;;;;;;12.00;69.39;91137.81;2025094;70;20160;-70
2024/03/31 07:24:44;;;;;;;12.55;7.30;;;;;;;12.45;69.83;91134.94;2031370;70;20154;-75
2024/03/31 07:27:10;;;;;;;12.20;5.93;;;;;;;12.88;67.48;91124.84;2027886;70;20167;-72
2024/03/31 07:29:36;;;;;;;6.57;2.95;;;;;;;13.28;67.14;91115.28;2027574;70;20606;-78
2024/03/31 07:32:02;;;;;;;5.32;3.08;;;;;;;13.02;67.68;91121.69;2027676;70;20196;-80
2024/03/31 07:34:28;;;;;;;12.77;6.07;;;;;;;13.44;64.79;91115.72;2025376;70;20192;-72
2024/03/31 07:36:53;;;;;;;8.82;5.45;;;;;;;13.37;64.89;91125.41;2028024;70;20145;-74
2024/03/31 07:39:19;;;;;;;10.30;5.68;;;;;;;13.63;64.88;91114.03;2031527;70;20149;-75
2024/03/31 07:41:44;;;;;;;7.10;4.30;;;;;;;13.60;65.06;91107.63;2031954;70;20144;-78
2024/03/31 07:44:11;;;;;;;6.55;3.40;;;;;;;14.24;62.33;91112.59;2031548;70;20215;-75
2024/03/31 07:46:37;;;;;;;4.82;2.40;;;;;;;15.03;62.53;91112.81;2031505;70;20180;-77
2024/03/31 07:49:02;;;;;;;13.20;6.80;;;;;;;15.11;58.45;91113.69;2031860;70;20125;-76
2024/03/31 07:51:28;;;;;;;7.25;4.20;;;;;;;14.86;59.08;91117.47;2030027;70;20244;-70
2024/03/31 07:53:53;;;;;;;7.00;3.92;;;;;;;15.03;57.68;91130.56;2034566;70;20140;-71
2024/03/31 07:56:19;;;;;;;3.25;2.10;;;;;;;14.45;58.35;91122.28;2030853;70;20140;-76
2024/03/31 07:58:45;;;;;;;4.57;2.20;;;;;;;14.88;58.17;91128.84;2034528;70;20196;-70
2024/03/31 08:01:10;;;;;;;7.28;3.75;;;;;;;14.55;57.81;91127.47;2034397;70;20481;-75
2024/03/31 08:03:36;;;;;;;3.30;2.20;;;;;;;14.88;58.08;91123.88;2034869;70;20175;-76
2024/03/31 08:06:01;;;;;;;3.92;2.20;;;;;;;15.72;56.35;91126.16;2034823;70;20525;-79
2024/03/31 08:08:27;;;;;;;2.63;1.58;;;;;;;15.81;55.54;91129.84;2034804;70;20175;-70
2024/03/31 08:10:52;;;;;;;3.83;1.73;;;;;;;16.26;55.61;91107.81;2034382;70;20132;-71
2024/03/31 08:13:18;;;;;;;2.83;1.67;;;;;;;16.77;53.24;91128.44;2034279;70;20247;-71
2024/03/31 08:15:45;;;;;;;2.47;1.50;;;;;;;16.56;52.78;91127.41;2033657;70;20164;-72
2024/03/31 08:18:12;;;;;;;3.85;1.40;;;;;;;16.66;52.66;91098.44;2033823;70;20279;-70
2024/03/31 08:20:37;;;;;;;2.38;1.23;;;;;;;16.78;52.55;91112.81;2034911;70;20227;-74
2024/03/31 08:23:03;;;;;;;3.75;1.40;;;;;;;16.63;51.77;91119.69;2034197;70;20171;-74
2024/03/31 08:25:28;;;;;;;6.53;1.67;;;;;;;16.93;52.31;91113.72;2034336;70;20586;-70
2024/03/31 08:27:54;;;;;;;3.92;2.40;;;;;;;16.44;51.69;91102.41;2030989;70;20132;-70
2024/03/31 08:30:20;;;;;;;2.97;1.40;;;;;;;16.64;51.13;91092.72;2034481;70;20240;-69
2024/03/31 08:32:45;;;;;;;2.10;1.30;;;;;;;17.27;52.45;91102.75;2034634;70;20182;-78
2024/03/31 08:35:11;;;;;;;3.28;1.17;;;;;;;17.73;49.14;91112.41;2034786;70;20184;-77
2024/03/31 08:37:37;;;;;;;4.25;1.10;;;;;;;17.72;46.67;91117.38;2034239;70;20271;-81
2024/03/31 08:40:03;;;;;;;9.15;1.60;;;;;;;18.74;45.88;91126.75;2034962;70;20159;-73
2024/03/31 08:43:05;;;;;;;2.97;0.90;;;;;;;18.35;43.85;91114.38;2034647;70;20148;-72
2024/03/31 08:45:31;;;;;;;5.10;0.95;;;;;;;17.88;43.22;91130.38;2029785;70;20171;-78
2024/03/31 08:47:59;;;;;;;4.15;0.93;;;;;;;17.50;42.75;91129.28;2034792;70;20163;-70
2024/03/31 08:50:26;;;;;;;3.72;0.68;;;;;;;17.32;42.24;91122.66;2035343;70;20156;-76
2024/03/31 08:52:52;;;;;;;3.63;0.88;;;;;;;17.23;44.11;91121.88;2035271;70;20175;-75
2024/03/31 08:55:18;;;;;;;4.93;0.80;;;;;;;17.95;42.35;91115.47;2034939;70;20160;-70
2024/03/31 08:57:44;;;;;;;5.65;1.13;;;;;;;16.98;41.23;91110.22;2035200;70;20139;-74
2024/03/31 09:00:11;;;;;;;11.65;1.15;;;;;;;17.47;41.32;91124.25;2035158;70;20152;-77
2024/03/31 09:02:38;;;;;;;7.45;1.15;;;;;;;17.61;41.64;91095.25;2031665;70;20155;-72
2024/03/31 09:05:04;;;;;;;7.60;1.27;;;;;;;18.90;41.06;91082.63;2035304;70;20509;-75
2024/03/31 09:07:31;;;;;;;9.18;1.50;;;;;;;18.95;39.71;91112.59;2035127;70;20151;-71
2024/03/31 09:09:57;;;;;;;12.02;1.27;;;;;;;19.80;39.02;91090.06;2035120;70;20175;-70
2024/03/31 09:12:23;;;;;;;11.70;1.85;;;;;;;19.13;38.01;91129.78;2035141;70;20147;-70
2024/03/31 09:14:49;;;;;;;10.85;1.77;;;;;;;20.22;38.12;91100.06;2031518;70;20137;-73
2024/03/31 09:17:14;;;;;;;12.75;1.58;;;;;;;19.70;36.91;91104.31;2035096;70;20140;-70
2024/03/31 09:19:40;;;;;;;8.68;1.63;;;;;;;19.21;37.39;91107.00;2035221;70;20268;-70
2024/03/31 09:22:06;;;;;;;10.40;1.60;;;;;;;19.05;37.26;91098.38;2034945;70;20163;-71
2024/03/31 09:24:32;;;;;;;11.23;1.30;;;;;;;18.64;37.51;91103.13;2035240;70;20528;-71
2024/03/31 09:26:58;;;;;;;7.45;1.55;;;;;;;18.29;38.45;91125.72;2034710;70;20159;-71
2024/03/31 09:29:26;;;;;;;10.32;1.70;;;;;;;18.75;38.92;91093.28;2031343;70;20167;-70
2024/03/31 09:32:06;;;;;;;9.02;1.45;;;;;;;18.64;37.33;91097.44;2031327;70;20144;-69
2024/03/31 09:34:31;;;;;;;10.85;1.50;;;;;;;18.09;38.47;91111.31;2031550;70;20184;-69
2024/03/31 09:36:57;;;;;;;10.85;2.05;;;;;;;17.65;38.80;91132.97;2035055;70;20171;-71
2024/03/31 09:39:23;;;;;;;13.85;1.27;;;;;;;19.21;37.32;91129.13;2034938;70;20152;-70
2024/03/31 09:41:53;;;;;;;9.85;1.27;;;;;;;19.19;37.22;91138.34;2037292;70;20455;-73
2024/03/31 09:44:19;;;;;;;8.27;0.98;;;;;;;19.88;36.85;91177.13;2038352;70;20196;-69
2024/03/31 09:46:46;;;;;;;7.35;0.90;;;;;;;19.92;35.92;91182.84;2038585;70;20152;-77
2024/03/31 09:49:19;;;;;;;6.22;0.90;;;;;;;20.58;36.83;91192.25;2036526;70;20144;-76
2024/03/31 09:51:48;;;;;;;6.57;0.70;;;;;;;19.70;37.05;91194.91;2037287;70;20155;-81
2024/03/31 09:54:31;;;;;;;2.60;0.75;;;;;;;20.13;36.97;91215.03;2037993;70;20191;-80
2024/03/31 09:57:03;;;;;;;4.00;0.50;;;;;;;20.27;36.50;91177.91;2035692;70;20239;-80
2024/03/31 09:59:30;;;;;;;1.50;0.60;;;;;;;19.99;37.32;91184.31;2033206;70;20197;-73
2024/03/31 10:01:57;;;;;;;3.70;0.60;;;;;;;19.60;37.11;91186.31;2032001;70;20136;-73
2024/03/31 10:04:35;;;;;;;4.63;0.55;;;;;;;19.98;36.75;91171.47;2035709;70;20558;-77
2024/03/31 10:07:02;;;;;;;2.53;0.30;;;;;;;20.19;37.51;91203.63;2035363;70;20609;-80
2024/03/31 10:09:29;;;;;;;1.77;0.20;;;;;;;19.86;37.23;91209.25;2031866;70;20227;-78
2024/03/31 10:11:56;;;;;;;2.63;0.40;;;;;;;20.52;36.93;91172.94;2035214;70;20152;-73
2024/03/31 10:14:25;;;;;;;4.07;0.30;;;;;;;21.94;35.69;91148.22;2031631;70;20601;-73
2024/03/31 10:16:51;;;;;;;1.23;0.20;;;;;;;21.28;36.41;91153.50;2030023;70;20184;-74
2024/03/31 10:19:17;;;;;;;1.10;0.40;;;;;;;22.03;35.67;91190.41;2035854;70;20168;-71
2024/03/31 10:21:43;;;;;;;1.85;0.20;;;;;;;20.80;35.08;91197.94;2035391;70;20158;-71
2024/03/31 10:24:13;;;;;;;1.50;0.20;;;;;;;21.00;34.83;91148.59;2035565;70;20161;-71
2024/03/31 10:26:39;;;;;;;0.30;0.10;;;;;;;21.02;35.03;91174.31;2032051;70;20152;-71
2024/03/31 10:29:05;;;;;;;1.23;0.30;;;;;;;22.50;33.57;91193.03;2035470;70;20163;-71
2024/03/31 10:31:32;;;;;;;2.17;0.28;;;;;;;21.81;33.80;91176.22;2035066;70;20140;-70
2024/03/31 10:33:59;;;;;;;0.40;0.20;;;;;;;22.28;33.09;91196.75;2035123;70;20209;-71
2024/03/31 10:36:28;;;;;;;0.13;0.10;;;;;;;21.39;35.02;91174.94;2035149;70;20185;-72
2024/03/31 10:38:54;;;;;;;0.13;0.10;;;;;;;19.80;36.24;91209.25;2035276;70;20140;-79
2024/03/31 10:41:20;;;;;;;0.65;0.40;;;;;;;19.58;37.44;91217.72;2031630;70;20156;-77
2024/03/31 10:43:47;;;;;;;0.30;0.10;;;;;;;19.28;37.59;91170.50;2035107;70;20579;-71
2024/03/31 10:46:13;;;;;;;0.38;0.10;;;;;;;17.86;38.38;91181.56;2035018;70;20289;-73
2024/03/31 10:48:38;;;;;;;0.08;0.00;;;;;;;19.07;38.18;91188.94;2034936;70;20236;-71
2024/03/31 10:51:11;;;;;;;0.63;0.10;;;;;;;18.34;38.57;91144.28;2035169;70;20171;-72
2024/03/31 10:53:37;;;;;;;0.00;0.00;;;;;;;18.13;38.40;91202.47;2031792;70;20168;-72
2024/03/31 10:56:07;;;;;;;1.38;0.13;;;;;;;18.06;38.81;91206.69;2035117;70;20144;-75
2024/03/31 10:58:33;;;;;;;0.65;0.10;;;;;;;18.20;38.62;91196.13;2035028;70;20228;-71
2024/03/31 11:01:02;;;;;;;0.10;0.10;;;;;;;18.03;38.70;91161.09;2034830;70;20155;-70
2024/03/31 11:03:31;;;;;;;0.28;0.10;;;;;;;18.50;39.04;91121.59;2035041;70;20258;-71
2024/03/31 11:05:58;;;;;;;0.00;0.00;;;;;;;18.50;39.15;91169.31;2034840;70;20247;-70
2024/03/31 11:08:24;;;;;;;2.92;0.10;;;;;;;18.76;38.45;91151.69;2034706;70;20164;-70
2024/03/31 11:10:51;;;;;;;0.55;0.10;;;;;;;18.88;37.99;91153.91;2035181;70;20160;-75
2024/03/31 11:13:17;;;;;;;0.60;0.10;;;;;;;19.01;38.06;91198.16;2035327;70;20171;-76
2024/03/31 11:15:43;;;;;;;0.20;0.10;;;;;;;18.77;38.39;91307.75;2035098;70;20244;-73
2024/03/31 11:18:09;;;;;;;0.13;0.10;;;;;;;17.56;39.39;91279.41;2031413;70;20225;-81
2024/03/31 11:20:42;;;;;;;0.77;0.10;;;;;;;17.66;40.38;91327.19;2031486;70;20164;-70
2024/03/31 11:23:12;;;;;;;1.95;0.10;;;;;;;17.25;40.85;91273.31;2035037;70;20191;-71
2024/03/31 11:25:42;;;;;;;1.52;0.20;;;;;;;17.83;41.06;91303.25;2031380;70;20179;-70
2024/03/31 11:28:12;;;;;;;0.28;0.20;;;;;;;18.09;41.25;91282.88;2035150;70;20152;-70
2024/03/31 11:30:39;;;;;;;0.60;0.13;;;;;;;20.38;38.43;91250.06;2034958;70;20567;-73